Y94 weather

East Jordan City Airport
East Jordan, Michigan, United States

Public forecast

Using degrees Fahrenheit for public forecast. Weather courtesy of forecast.io.

METAR (pilot weather report)

Closest report is Antrim County Airport, 9.3 nm (17.3 km) SSW. Retrieved 2019/06/17 18:36 UTC (0 seconds ago):

KACB 171836Z AUTO 29006KT 10SM CLR 23/11 A3001 RMK AO2 T02250108

TAF (pilot weather forecast)

Closest forecast is Pellston Regional Airport of Emmet County Airport, 29.5 nm (54.7 km) NNE. Retrieved 2019/06/17 18:06 UTC (9 minutes ago):

TAF KPLN 171804Z 1718/1818 VRB04KT P6SM BKN050 FM172100 VRB04KT P6SM FEW050 FM180100 00000KT P6SM FEW250 FM181300 VRB04KT P6SM BKN100